createdAt,value
2022-11-25T00:01:23.748Z,6.59
2022-11-25T00:03:51.819Z,6.59
2022-11-25T00:06:23.243Z,6.71
2022-11-25T00:08:56.048Z,6.70
2022-11-25T00:11:23.593Z,6.76
2022-11-25T00:13:50.793Z,6.75
2022-11-25T00:16:19.969Z,6.83
2022-11-25T00:18:49.873Z,6.88
2022-11-25T00:21:19.445Z,6.86
2022-11-25T00:23:58.698Z,6.84
2022-11-25T00:26:26.839Z,6.84
2022-11-25T00:28:54.898Z,6.88
2022-11-25T00:31:24.732Z,6.95
2022-11-25T00:33:52.262Z,6.38
2022-11-25T00:36:34.168Z,6.93
2022-11-25T00:39:11.058Z,6.92
2022-11-25T00:41:56.981Z,6.97
2022-11-25T00:44:36.646Z,6.96
2022-11-25T00:47:12.070Z,6.99
2022-11-25T00:49:41.321Z,6.92
2022-11-25T00:52:09.567Z,6.90
2022-11-25T00:54:36.744Z,6.90
2022-11-25T00:57:04.335Z,6.99
2022-11-25T00:59:31.612Z,6.99
2022-11-25T01:01:59.747Z,7.03
2022-11-25T01:04:27.021Z,7.00
2022-11-25T01:06:58.284Z,6.95
2022-11-25T01:09:25.843Z,6.93
2022-11-25T01:11:53.359Z,6.99
2022-11-25T01:14:22.002Z,7.05
2022-11-25T01:16:49.617Z,7.05
2022-11-25T01:19:17.797Z,7.09
2022-11-25T01:21:44.819Z,7.03
2022-11-25T01:24:14.495Z,7.13
2022-11-25T01:26:42.532Z,7.17
2022-11-25T01:29:15.434Z,7.19
2022-11-25T01:31:42.933Z,7.16
2022-11-25T01:34:23.081Z,7.15
2022-11-25T01:36:50.803Z,7.15
2022-11-25T01:39:26.882Z,7.12
2022-11-25T01:41:58.165Z,7.10
2022-11-25T01:44:29.317Z,7.08
2022-11-25T01:46:59.750Z,7.13
2022-11-25T01:50:02.857Z,7.14
2022-11-25T01:52:44.226Z,7.18
2022-11-25T01:55:11.108Z,7.15
2022-11-25T01:57:44.394Z,7.12
2022-11-25T02:00:12.348Z,7.13
2022-11-25T02:02:46.715Z,7.16
2022-11-25T02:05:17.939Z,6.88
2022-11-25T02:07:48.665Z,7.13
2022-11-25T02:10:24.228Z,7.14
2022-11-25T02:12:52.644Z,7.14
2022-11-25T02:15:20.667Z,7.19
2022-11-25T02:17:48.191Z,7.25
2022-11-25T02:20:17.864Z,7.10
2022-11-25T02:23:05.752Z,7.11
2022-11-25T02:25:35.921Z,7.08
2022-11-25T02:28:17.419Z,7.12
2022-11-25T02:30:45.601Z,7.10
2022-11-25T02:33:13.221Z,7.20
2022-11-25T02:35:46.668Z,7.14
2022-11-25T02:38:19.235Z,7.04
2022-11-25T02:40:54.910Z,7.06
2022-11-25T02:43:22.689Z,7.10
2022-11-25T02:46:02.398Z,7.02
2022-11-25T02:49:00.973Z,7.04
2022-11-25T02:51:22.971Z,7.03
2022-11-25T02:53:50.490Z,7.02
2022-11-25T02:56:23.793Z,7.00
2022-11-25T02:58:50.801Z,7.07
2022-11-25T03:01:18.318Z,7.11
2022-11-25T03:03:45.479Z,7.06
2022-11-25T03:06:14.760Z,7.05
2022-11-25T03:08:45.009Z,7.04
2022-11-25T03:11:13.310Z,7.01
2022-11-25T03:13:41.083Z,7.02
2022-11-25T03:16:09.184Z,7.10
2022-11-25T03:18:36.278Z,7.14
2022-11-25T03:21:03.459Z,7.02
2022-11-25T03:23:30.544Z,7.00
2022-11-25T03:25:57.587Z,7.06
2022-11-25T03:28:24.670Z,7.12
2022-11-25T03:30:51.770Z,7.13
2022-11-25T03:33:18.661Z,7.10
2022-11-25T03:35:48.451Z,7.12
2022-11-25T03:38:15.275Z,7.15
2022-11-25T03:40:42.455Z,7.06
2022-11-25T03:43:09.787Z,7.11
2022-11-25T03:45:37.053Z,7.00
2022-11-25T03:48:07.169Z,7.05
2022-11-25T03:50:34.323Z,7.09
2022-11-25T03:53:01.840Z,7.09
2022-11-25T03:55:29.129Z,6.91
2022-11-25T03:57:56.172Z,7.01
2022-11-25T04:00:24.557Z,7.00
2022-11-25T04:02:58.722Z,7.09
2022-11-25T04:05:25.704Z,7.07
2022-11-25T04:07:57.886Z,7.07
2022-11-25T04:10:27.186Z,6.99
2022-11-25T04:12:55.349Z,7.05
2022-11-25T04:15:28.534Z,7.05
2022-11-25T04:17:57.841Z,6.99
2022-11-25T04:20:25.205Z,6.98
2022-11-25T04:23:12.773Z,7.02
2022-11-25T04:25:45.317Z,6.97
2022-11-25T04:28:18.458Z,6.90
2022-11-25T04:30:45.347Z,6.89
2022-11-25T04:33:12.991Z,6.92
2022-11-25T04:35:39.997Z,6.92
2022-11-25T04:38:08.596Z,6.81
2022-11-25T04:40:36.863Z,6.83
2022-11-25T04:43:15.927Z,6.80
2022-11-25T04:46:12.984Z,6.85
2022-11-25T04:48:39.156Z,6.75
2022-11-25T04:51:06.340Z,6.72
2022-11-25T04:53:33.610Z,6.78
2022-11-25T04:56:00.567Z,6.79
2022-11-25T04:58:49.238Z,6.81
2022-11-25T05:01:16.431Z,6.82
2022-11-25T05:03:54.485Z,6.88
2022-11-25T05:06:25.922Z,6.85
2022-11-25T05:08:53.462Z,6.90
2022-11-25T05:11:22.079Z,6.88
2022-11-25T05:13:50.315Z,6.89
2022-11-25T05:16:18.839Z,6.86
2022-11-25T05:18:46.176Z,6.98
2022-11-25T05:21:13.410Z,6.91
2022-11-25T05:23:42.449Z,6.94
2022-11-25T05:26:10.186Z,6.96
2022-11-25T05:28:43.663Z,6.92
2022-11-25T05:31:12.025Z,6.98
2022-11-25T05:33:39.182Z,6.99
2022-11-25T05:36:08.550Z,6.99
2022-11-25T05:38:46.709Z,6.89
2022-11-25T05:41:19.647Z,6.98
2022-11-25T05:43:47.876Z,7.02
2022-11-25T05:46:15.670Z,7.01
2022-11-25T05:48:47.759Z,6.99
2022-11-25T05:51:15.133Z,7.08
2022-11-25T05:53:42.157Z,7.13
2022-11-25T05:56:10.531Z,7.11
2022-11-25T05:59:07.482Z,7.11
2022-11-25T06:01:45.946Z,7.21
2022-11-25T06:04:14.591Z,7.21
2022-11-25T06:06:42.129Z,7.17
2022-11-25T06:09:09.132Z,7.17
2022-11-25T06:11:39.147Z,7.18
2022-11-25T06:14:06.349Z,7.16
2022-11-25T06:16:33.827Z,7.09
2022-11-25T06:19:10.447Z,7.22
2022-11-25T06:21:37.778Z,7.33
2022-11-25T06:24:05.388Z,7.27
2022-11-25T06:26:32.734Z,7.20
2022-11-25T06:29:03.840Z,7.31
2022-11-25T06:31:31.152Z,7.28
2022-11-25T06:34:16.000Z,7.12
2022-11-25T06:36:43.392Z,7.26
2022-11-25T06:39:10.478Z,7.11
2022-11-25T06:41:37.792Z,7.29
2022-11-25T06:44:08.630Z,7.32
2022-11-25T06:46:35.942Z,7.40
2022-11-25T06:49:03.265Z,7.37
2022-11-25T06:51:31.059Z,7.41
2022-11-25T06:54:00.373Z,7.47
2022-11-25T06:56:28.743Z,7.50
2022-11-25T06:58:56.301Z,7.56
2022-11-25T07:01:29.151Z,7.59
2022-11-25T07:04:00.772Z,7.67
2022-11-25T07:06:28.025Z,7.75
2022-11-25T07:08:58.121Z,7.62
2022-11-25T07:11:26.736Z,7.65
2022-11-25T07:14:00.265Z,7.65
2022-11-25T07:16:31.091Z,7.71
2022-11-25T07:19:02.194Z,7.67
2022-11-25T07:21:30.768Z,7.62
2022-11-25T07:24:00.561Z,7.71
2022-11-25T07:26:30.007Z,7.41
2022-11-25T07:29:02.736Z,7.59
2022-11-25T07:31:33.883Z,7.74
2022-11-25T07:34:06.195Z,7.67
2022-11-25T07:36:35.100Z,7.42
2022-11-25T07:39:05.805Z,7.41
2022-11-25T07:41:35.925Z,7.40
2022-11-25T07:44:05.891Z,7.23
2022-11-25T07:46:46.236Z,7.36
2022-11-25T07:49:16.403Z,7.44
2022-11-25T07:51:51.233Z,7.39
2022-11-25T07:54:18.292Z,7.59
2022-11-25T07:56:46.020Z,7.63
2022-11-25T07:59:16.300Z,7.61
2022-11-25T08:01:44.513Z,8.05
2022-11-25T08:04:18.282Z,7.96
2022-11-25T08:06:48.901Z,8.02
2022-11-25T08:09:20.985Z,8.07
2022-11-25T08:11:49.658Z,8.14
2022-11-25T08:14:18.104Z,8.24
2022-11-25T08:16:45.417Z,8.27
2022-11-25T08:19:15.619Z,8.30
2022-11-25T08:21:42.973Z,8.25
2022-11-25T08:24:19.353Z,8.23
2022-11-25T08:26:46.972Z,8.23
2022-11-25T08:29:16.109Z,8.09
2022-11-25T08:31:43.695Z,8.15
2022-11-25T08:34:22.075Z,7.97
2022-11-25T08:36:52.303Z,8.45
2022-11-25T08:39:51.908Z,8.38
2022-11-25T08:42:08.681Z,8.54
2022-11-25T08:44:36.568Z,8.61
2022-11-25T08:47:04.085Z,8.47
2022-11-25T08:49:33.811Z,8.43
2022-11-25T08:52:10.703Z,8.44
2022-11-25T08:54:38.389Z,8.54
2022-11-25T08:57:09.132Z,8.56
2022-11-25T08:59:36.952Z,8.71
2022-11-25T09:02:04.662Z,8.64
2022-11-25T09:04:38.141Z,8.72
2022-11-25T09:10:47.347Z,8.38
2022-11-25T09:13:15.979Z,8.38
2022-11-25T09:15:43.547Z,8.38
2022-11-25T09:18:11.622Z,8.46
2022-11-25T09:20:43.920Z,8.59
2022-11-25T09:26:30.447Z,8.31
2022-11-25T09:28:58.136Z,8.32
2022-11-25T09:31:25.158Z,8.35
2022-11-25T09:33:52.891Z,8.36
2022-11-25T09:36:21.074Z,8.43
2022-11-25T09:38:49.024Z,8.52
2022-11-25T09:42:05.561Z,8.50
2022-11-25T09:45:13.014Z,8.55
2022-11-25T09:47:57.564Z,8.52
2022-11-25T09:50:48.971Z,8.61
2022-11-25T09:53:31.854Z,8.70
2022-11-25T09:56:28.264Z,8.65
2022-11-25T09:59:10.403Z,8.76
2022-11-25T10:02:04.609Z,8.54
2022-11-25T10:04:42.769Z,8.74
2022-11-25T10:07:20.104Z,8.82
2022-11-25T10:09:48.020Z,8.96
2022-11-25T10:12:31.104Z,8.98
2022-11-25T10:15:07.348Z,8.86
2022-11-25T10:17:43.364Z,8.97
2022-11-25T10:20:20.519Z,9.09
2022-11-25T10:22:55.345Z,8.97
2022-11-25T10:25:30.552Z,8.89
2022-11-25T10:28:03.448Z,8.87
2022-11-25T10:30:51.144Z,8.93
2022-11-25T10:33:36.421Z,9.08
2022-11-25T10:36:18.553Z,9.06
2022-11-25T10:38:56.355Z,9.20
2022-11-25T10:41:34.084Z,9.08
2022-11-25T10:48:50.851Z,9.02
2022-11-25T10:51:51.156Z,8.91
2022-11-25T10:54:27.572Z,8.98
2022-11-25T10:57:03.234Z,9.14
2022-11-25T10:59:38.885Z,9.15
2022-11-25T11:02:19.554Z,9.15
2022-11-25T11:04:56.590Z,9.26
2022-11-25T11:07:27.208Z,9.27
2022-11-25T11:09:54.833Z,9.32
2022-11-25T11:12:25.960Z,9.37
2022-11-25T11:14:55.110Z,9.30
2022-11-25T11:17:37.180Z,9.15
2022-11-25T11:20:07.609Z,9.18
2022-11-25T11:22:36.530Z,9.13
2022-11-25T11:25:21.631Z,9.19
2022-11-25T11:27:49.502Z,9.26
2022-11-25T11:30:23.649Z,9.33
2022-11-25T11:33:00.600Z,9.30
2022-11-25T11:35:53.523Z,9.26
2022-11-25T11:38:31.642Z,9.35
2022-11-25T11:41:29.309Z,9.39
2022-11-25T11:43:59.305Z,9.43
2022-11-25T11:47:01.904Z,9.25
2022-11-25T11:49:54.972Z,9.13
2022-11-25T11:52:52.504Z,9.26
2022-11-25T11:55:28.942Z,9.27
2022-11-25T11:58:39.429Z,9.11
2022-11-25T12:01:31.504Z,9.19
2022-11-25T12:04:15.265Z,9.03
2022-11-25T12:06:46.590Z,9.05
2022-11-25T12:09:20.606Z,9.13
2022-11-25T12:11:54.514Z,9.14
2022-11-25T12:14:43.055Z,9.09
2022-11-25T12:17:27.234Z,9.09
2022-11-25T12:20:22.489Z,8.85
2022-11-25T12:23:20.578Z,9.10
2022-11-25T12:25:52.428Z,9.12
2022-11-25T12:28:29.609Z,9.09
2022-11-25T12:31:06.449Z,9.16
2022-11-25T12:33:48.902Z,9.05
2022-11-25T12:36:21.896Z,9.08
2022-11-25T12:39:12.198Z,9.17
2022-11-25T12:42:05.199Z,9.20
2022-11-25T12:44:44.281Z,9.05
2022-11-25T12:47:12.314Z,9.02
2022-11-25T12:49:44.290Z,9.05
2022-11-25T12:52:33.531Z,9.07
2022-11-25T12:55:19.022Z,9.20
2022-11-25T12:58:10.753Z,9.25
2022-11-25T13:01:22.556Z,9.19
2022-11-25T13:04:10.203Z,9.17
2022-11-25T13:07:00.052Z,9.19
2022-11-25T13:09:48.138Z,9.34
2022-11-25T13:12:18.950Z,9.45
2022-11-25T13:14:50.829Z,9.43
2022-11-25T13:17:27.402Z,9.39
2022-11-25T13:20:30.606Z,9.53
2022-11-25T13:23:19.282Z,9.54
2022-11-25T13:25:51.129Z,9.57
2022-11-25T13:28:35.235Z,9.55
2022-11-25T13:31:16.699Z,9.55
2022-11-25T13:33:57.241Z,9.37
2022-11-25T13:36:43.112Z,9.35
2022-11-25T13:39:18.246Z,9.40
2022-11-25T13:42:34.645Z,9.34
2022-11-25T13:45:01.802Z,9.38
2022-11-25T13:47:40.937Z,9.39
2022-11-25T13:50:26.348Z,9.45
2022-11-25T13:53:03.802Z,9.32
2022-11-25T13:55:37.438Z,9.35
2022-11-25T13:58:10.390Z,9.28
2022-11-25T14:00:37.488Z,9.31
2022-11-25T14:03:20.179Z,9.29
2022-11-25T14:05:47.192Z,9.26
2022-11-25T14:08:39.341Z,9.25
2022-11-25T14:11:10.060Z,9.21
2022-11-25T14:14:07.523Z,9.17
2022-11-25T14:17:03.723Z,9.12
2022-11-25T14:19:55.153Z,9.04
2022-11-25T14:22:50.692Z,9.00
2022-11-25T14:25:31.111Z,9.00
2022-11-25T14:28:30.581Z,8.97
2022-11-25T14:31:04.917Z,8.93
2022-11-25T14:33:48.777Z,8.89
2022-11-25T14:36:28.093Z,8.83
2022-11-25T14:39:10.605Z,8.80
2022-11-25T14:41:40.624Z,8.86
2022-11-25T14:44:16.055Z,8.74
2022-11-25T14:46:53.254Z,8.73
2022-11-25T14:49:46.633Z,8.67
2022-11-25T14:52:30.370Z,8.63
2022-11-25T14:54:58.630Z,8.60
2022-11-25T14:57:29.722Z,8.65
2022-11-25T15:00:03.621Z,8.67
2022-11-25T15:02:34.582Z,8.62
2022-11-25T15:05:23.880Z,8.58
2022-11-25T15:08:00.843Z,8.54
2022-11-25T15:10:42.306Z,8.52
2022-11-25T15:13:12.976Z,8.49
2022-11-25T15:15:40.442Z,8.47
2022-11-25T15:18:10.055Z,8.54
2022-11-25T15:20:38.880Z,8.56
2022-11-25T15:23:05.860Z,8.53
2022-11-25T15:25:32.738Z,8.46
2022-11-25T15:27:59.912Z,8.52
2022-11-25T15:30:32.168Z,8.53
2022-11-25T15:33:10.189Z,8.54
2022-11-25T15:35:37.712Z,8.48
2022-11-25T15:38:37.982Z,8.45
2022-11-25T15:41:06.760Z,8.46
2022-11-25T15:43:37.537Z,8.48
2022-11-25T15:46:05.969Z,8.40
2022-11-25T15:48:46.359Z,8.43
2022-11-25T15:51:34.921Z,8.37
2022-11-25T15:54:28.559Z,8.31
2022-11-25T15:57:06.244Z,8.24
2022-11-25T15:59:56.216Z,8.19
2022-11-25T16:02:50.437Z,8.17
2022-11-25T16:05:26.596Z,8.19
2022-11-25T16:07:53.845Z,8.16
2022-11-25T16:10:34.396Z,8.16
2022-11-25T16:13:23.486Z,8.15
2022-11-25T16:16:02.295Z,8.04
2022-11-25T16:18:56.469Z,7.95
2022-11-25T16:21:30.581Z,7.99
2022-11-25T16:24:10.333Z,7.93
2022-11-25T16:26:51.227Z,7.91
2022-11-25T16:29:41.910Z,7.91
2022-11-25T16:32:29.795Z,7.89
2022-11-25T16:35:11.561Z,7.87
2022-11-25T16:37:38.626Z,7.78
2022-11-25T16:40:06.324Z,7.79
2022-11-25T16:42:33.934Z,7.77
2022-11-25T16:45:01.639Z,7.77
2022-11-25T16:47:28.735Z,7.70
2022-11-25T16:49:55.771Z,7.75
2022-11-25T16:52:22.905Z,7.60
2022-11-25T16:54:49.925Z,7.60
2022-11-25T16:57:22.509Z,7.61
2022-11-25T16:59:55.765Z,7.57
2022-11-25T17:02:24.473Z,7.50
2022-11-25T17:04:51.653Z,7.52
2022-11-25T17:07:36.070Z,7.49
2022-11-25T17:10:04.291Z,7.41
2022-11-25T17:12:34.541Z,7.42
2022-11-25T17:15:04.747Z,7.40
2022-11-25T17:17:32.488Z,7.44
2022-11-25T17:19:59.520Z,7.49
2022-11-25T17:22:28.693Z,7.46
2022-11-25T17:24:58.640Z,7.46
2022-11-25T17:27:29.654Z,7.44
2022-11-25T17:29:58.611Z,7.37
2022-11-25T17:32:26.782Z,7.40
2022-11-25T17:34:54.649Z,7.40
2022-11-25T17:37:24.756Z,7.38
2022-11-25T17:39:53.556Z,7.25
2022-11-25T17:42:31.663Z,7.10
2022-11-25T17:44:59.862Z,7.25
2022-11-25T17:47:27.018Z,7.19
2022-11-25T17:49:54.688Z,7.11
2022-11-25T17:52:21.883Z,6.89
2022-11-25T17:54:48.882Z,6.93
2022-11-25T17:57:19.876Z,6.83
2022-11-25T17:59:47.282Z,6.67
2022-11-25T18:02:19.854Z,6.74
2022-11-25T18:04:47.070Z,6.67
2022-11-25T18:07:14.656Z,6.64
2022-11-25T18:10:01.147Z,6.52
2022-11-25T18:12:34.041Z,6.42
2022-11-25T18:15:08.679Z,6.39
2022-11-25T18:17:37.886Z,6.29
2022-11-25T18:20:25.304Z,6.21
2022-11-25T18:22:53.277Z,6.17
2022-11-25T18:25:24.348Z,6.10
2022-11-25T18:27:56.652Z,6.07
2022-11-25T18:30:28.295Z,6.02
2022-11-25T18:32:57.515Z,5.93
2022-11-25T18:35:36.353Z,5.89
2022-11-25T18:38:05.091Z,5.84
2022-11-25T18:43:49.015Z,5.76
2022-11-25T18:46:16.229Z,5.73
2022-11-25T18:48:43.455Z,5.70
2022-11-25T18:51:13.217Z,5.68
2022-11-25T18:53:40.841Z,5.63
2022-11-25T18:56:17.480Z,5.65
2022-11-25T18:58:50.830Z,5.58
2022-11-25T19:01:22.239Z,5.70
2022-11-25T19:03:51.237Z,5.69
2022-11-25T19:06:18.250Z,5.67
2022-11-25T19:08:46.354Z,5.69
2022-11-25T19:11:21.963Z,5.71
2022-11-25T19:13:53.455Z,5.75
2022-11-25T19:16:22.821Z,5.72
2022-11-25T19:18:53.179Z,5.79
2022-11-25T19:21:21.271Z,5.81
2022-11-25T19:23:58.890Z,5.84
2022-11-25T19:26:42.533Z,5.81
2022-11-25T19:29:18.619Z,5.77
2022-11-25T19:31:49.781Z,5.76
2022-11-25T19:34:31.996Z,5.69
2022-11-25T19:37:13.596Z,5.73
2022-11-25T19:39:57.471Z,5.73
2022-11-25T19:42:34.975Z,5.71
2022-11-25T19:45:13.199Z,5.74
2022-11-25T19:47:40.924Z,5.70
2022-11-25T19:50:08.470Z,5.75
2022-11-25T19:52:43.823Z,5.75
2022-11-25T19:55:34.194Z,5.75
2022-11-25T19:58:07.073Z,5.78
2022-11-25T20:00:37.087Z,5.75
2022-11-25T20:03:05.069Z,5.73
2022-11-25T20:05:38.128Z,5.73
2022-11-25T20:08:05.734Z,5.69
2022-11-25T20:10:33.666Z,5.60
2022-11-25T20:13:02.057Z,5.66
2022-11-25T20:15:29.015Z,5.71
2022-11-25T20:18:00.179Z,5.64
2022-11-25T20:20:32.877Z,5.63
2022-11-25T20:23:04.148Z,5.56
2022-11-25T20:25:31.377Z,5.60
2022-11-25T20:27:58.943Z,5.53
2022-11-25T20:30:29.022Z,5.59
2022-11-25T20:32:56.137Z,5.58
2022-11-25T20:35:25.995Z,5.54
2022-11-25T20:37:58.345Z,5.57
2022-11-25T20:40:33.472Z,5.56
2022-11-25T20:43:00.591Z,5.47
2022-11-25T20:45:27.696Z,5.45
2022-11-25T20:47:54.702Z,5.39
2022-11-25T20:50:22.163Z,5.42
2022-11-25T20:52:50.653Z,5.41
2022-11-25T20:55:24.468Z,5.40
2022-11-25T20:57:52.739Z,5.34
2022-11-25T21:00:23.769Z,5.38
2022-11-25T21:02:51.585Z,5.28
2022-11-25T21:05:19.489Z,5.32
2022-11-25T21:07:49.210Z,5.28
2022-11-25T21:10:41.903Z,5.31
2022-11-25T21:13:38.019Z,5.23
2022-11-25T21:16:05.327Z,5.17
2022-11-25T21:18:44.695Z,5.15
2022-11-25T21:21:19.930Z,5.19
2022-11-25T21:23:50.096Z,5.18
2022-11-25T21:26:21.940Z,5.16
2022-11-25T21:28:54.454Z,5.22
2022-11-25T21:31:28.112Z,5.27
2022-11-25T21:33:59.318Z,5.16
2022-11-25T21:36:31.991Z,5.27
2022-11-25T21:39:08.809Z,5.29
2022-11-25T21:41:36.777Z,5.31
2022-11-25T21:44:06.948Z,5.35
2022-11-25T21:46:39.700Z,5.32
2022-11-25T21:49:14.159Z,5.37
2022-11-25T21:51:41.725Z,5.39
2022-11-25T21:54:18.420Z,5.45
2022-11-25T21:56:48.940Z,5.48
2022-11-25T21:59:20.157Z,5.39
2022-11-25T22:01:48.477Z,5.33
2022-11-25T22:04:19.676Z,5.38
2022-11-25T22:06:47.966Z,5.47
2022-11-25T22:09:16.608Z,5.45
2022-11-25T22:11:48.394Z,5.47
2022-11-25T22:14:27.803Z,5.46
2022-11-25T22:16:57.159Z,5.38
2022-11-25T22:19:28.932Z,5.58
2022-11-25T22:21:56.564Z,5.53
2022-11-25T22:24:24.201Z,5.48
2022-11-25T22:26:58.057Z,5.52
2022-11-25T22:29:34.945Z,5.47
2022-11-25T22:32:08.201Z,5.43
2022-11-25T22:34:39.666Z,5.38
2022-11-25T22:37:27.698Z,5.43
2022-11-25T22:39:56.052Z,5.36
2022-11-25T22:42:30.890Z,5.36
2022-11-25T22:45:00.131Z,5.19
2022-11-25T22:47:41.274Z,5.37
2022-11-25T22:50:18.471Z,5.43
2022-11-25T22:52:45.935Z,5.45
2022-11-25T22:55:20.817Z,5.43
2022-11-25T22:57:49.200Z,5.46
2022-11-25T23:00:24.457Z,5.44
2022-11-25T23:02:54.529Z,5.35
2022-11-25T23:05:32.477Z,5.33
2022-11-25T23:08:01.731Z,5.35
2022-11-25T23:10:32.606Z,5.29
2022-11-25T23:12:59.723Z,5.22
2022-11-25T23:15:27.258Z,5.24
2022-11-25T23:17:59.893Z,5.25
2022-11-25T23:20:32.607Z,5.19
2022-11-25T23:23:18.144Z,5.05
2022-11-25T23:25:45.826Z,5.00
2022-11-25T23:28:13.678Z,4.87
2022-11-25T23:30:52.704Z,4.85
2022-11-25T23:33:40.753Z,4.73
2022-11-25T23:36:09.973Z,4.79
2022-11-25T23:38:44.920Z,4.84
2022-11-25T23:41:33.129Z,4.77
2022-11-25T23:44:15.826Z,4.75
2022-11-25T23:46:44.535Z,4.67
2022-11-25T23:49:23.251Z,4.70
2022-11-25T23:51:51.623Z,4.72
2022-11-25T23:54:21.896Z,4.75
2022-11-25T23:56:51.674Z,4.74
2022-11-25T23:59:18.586Z,4.78
